createdAt,value
2016-09-27T00:01:32.944Z,0
2016-09-27T00:06:31.000Z,0
2016-09-27T00:11:27.211Z,0
2016-09-27T00:16:24.301Z,0
2016-09-27T00:21:20.697Z,0
2016-09-27T00:26:17.170Z,0
2016-09-27T00:31:13.636Z,0
2016-09-27T00:36:10.405Z,0
2016-09-27T00:41:07.021Z,0
2016-09-27T00:46:03.293Z,0
2016-09-27T00:50:59.844Z,0
2016-09-27T00:55:56.176Z,0
2016-09-27T01:00:52.633Z,0
2016-09-27T01:05:49.361Z,0
2016-09-27T01:10:45.754Z,0
2016-09-27T01:15:42.337Z,0
2016-09-27T01:20:38.908Z,0
2016-09-27T01:25:35.576Z,0
2016-09-27T01:30:32.197Z,0
2016-09-27T01:35:28.813Z,0
2016-09-27T01:40:25.356Z,0
2016-09-27T01:45:22.306Z,0
2016-09-27T01:50:18.877Z,0
2016-09-27T01:55:15.457Z,0
2016-09-27T02:00:11.700Z,0
2016-09-27T02:05:07.944Z,0
2016-09-27T02:10:04.354Z,0
2016-09-27T02:15:00.908Z,0
2016-09-27T02:19:57.683Z,0
2016-09-27T02:24:54.225Z,0
2016-09-27T02:29:50.740Z,0
2016-09-27T02:34:48.444Z,0
2016-09-27T02:39:44.607Z,0
2016-09-27T02:44:41.041Z,0
2016-09-27T02:49:37.438Z,0
2016-09-27T02:54:33.916Z,0
2016-09-27T02:59:30.336Z,0
2016-09-27T03:04:26.787Z,0
2016-09-27T03:09:23.288Z,0
2016-09-27T03:14:19.928Z,0
2016-09-27T03:19:16.858Z,0
2016-09-27T03:24:14.170Z,0
2016-09-27T03:29:10.594Z,0
2016-09-27T03:34:07.183Z,0
2016-09-27T03:39:06.281Z,0
2016-09-27T03:44:02.669Z,0
2016-09-27T03:48:59.256Z,0
2016-09-27T03:53:55.792Z,0
2016-09-27T03:58:52.295Z,0
2016-09-27T04:03:51.177Z,0
2016-09-27T04:08:46.995Z,0
2016-09-27T04:13:43.748Z,0
2016-09-27T04:18:40.849Z,0
2016-09-27T04:23:37.499Z,0
2016-09-27T04:28:33.632Z,0
2016-09-27T04:33:30.436Z,0
2016-09-27T04:38:26.760Z,0
2016-09-27T04:43:24.140Z,0
2016-09-27T04:48:20.041Z,0
2016-09-27T04:53:16.740Z,4
2016-09-27T04:58:13.114Z,4
2016-09-27T05:03:09.393Z,8
2016-09-27T05:08:06.833Z,24
2016-09-27T05:13:03.165Z,48
2016-09-27T05:17:59.690Z,92
2016-09-27T05:22:55.847Z,152
2016-09-27T05:27:52.763Z,232
2016-09-27T05:32:49.369Z,320
2016-09-27T05:37:45.975Z,420
2016-09-27T05:42:42.598Z,544
2016-09-27T05:47:39.451Z,708
2016-09-27T05:52:36.110Z,884
2016-09-27T05:57:32.423Z,1060
2016-09-27T06:02:29.399Z,1220
2016-09-27T06:07:25.893Z,1364
2016-09-27T06:12:22.743Z,1520
2016-09-27T06:17:19.343Z,1660
2016-09-27T06:22:15.635Z,1800
2016-09-27T06:27:12.317Z,1924
2016-09-27T06:32:09.727Z,2056
2016-09-27T06:37:06.200Z,2180
2016-09-27T06:42:02.821Z,2400
2016-09-27T06:46:59.728Z,2672
2016-09-27T06:51:56.252Z,2308
2016-09-27T06:56:53.336Z,2332
2016-09-27T07:01:50.167Z,2432
2016-09-27T07:06:47.011Z,2548
2016-09-27T07:11:43.987Z,2520
2016-09-27T07:16:40.911Z,2548
2016-09-27T07:21:37.396Z,2604
2016-09-27T07:26:35.177Z,2624
2016-09-27T07:31:31.653Z,2676
2016-09-27T07:36:28.082Z,3032
2016-09-27T07:41:25.286Z,2836
2016-09-27T07:46:21.541Z,2948
2016-09-27T07:51:18.286Z,2980
2016-09-27T07:56:15.311Z,3220
2016-09-27T08:01:11.637Z,3228
2016-09-27T08:06:09.043Z,3112
2016-09-27T08:11:06.267Z,3128
2016-09-27T08:16:04.925Z,3140
2016-09-27T08:21:01.346Z,3172
2016-09-27T08:25:57.994Z,3204
2016-09-27T08:30:55.024Z,3216
2016-09-27T08:35:51.825Z,3224
2016-09-27T08:40:48.255Z,3268
2016-09-27T08:45:47.311Z,3252
2016-09-27T08:50:43.471Z,3240
2016-09-27T08:55:40.055Z,3340
2016-09-27T09:00:36.706Z,3460
2016-09-27T09:05:33.464Z,3612
2016-09-27T09:10:30.034Z,3752
2016-09-27T09:15:26.716Z,3932
2016-09-27T09:20:23.536Z,4060
2016-09-27T09:25:20.295Z,4120
2016-09-27T09:30:17.046Z,4228
2016-09-27T09:35:13.535Z,4344
2016-09-27T09:40:10.428Z,4376
2016-09-27T09:45:06.985Z,4496
2016-09-27T09:50:03.333Z,4704
2016-09-27T09:55:00.003Z,4996
2016-09-27T09:59:56.961Z,5144
2016-09-27T10:04:53.701Z,5096
2016-09-27T10:09:50.939Z,5336
2016-09-27T10:14:47.546Z,5524
2016-09-27T10:19:44.706Z,5320
2016-09-27T10:24:42.529Z,5284
2016-09-27T10:29:39.089Z,5380
2016-09-27T10:34:35.904Z,6628
2016-09-27T10:39:33.487Z,5556
2016-09-27T10:44:29.871Z,5500
2016-09-27T10:49:26.867Z,6172
2016-09-27T10:54:23.725Z,6660
2016-09-27T10:59:21.048Z,23744
2016-09-27T11:04:21.105Z,59392
2016-09-27T11:09:21.906Z,66144
2016-09-27T11:14:21.768Z,50912
2016-09-27T11:19:20.154Z,59424
2016-09-27T11:24:18.922Z,61056
2016-09-27T11:29:18.692Z,61280
2016-09-27T11:34:16.676Z,33440
2016-09-27T11:39:13.070Z,67296
2016-09-27T11:44:10.894Z,64768
2016-09-27T11:49:08.387Z,57728
2016-09-27T11:54:05.662Z,71136
2016-09-27T11:59:01.011Z,60096
2016-09-27T12:03:59.365Z,63168
2016-09-27T12:08:56.026Z,60288
2016-09-27T12:13:50.121Z,46464
2016-09-27T12:18:49.516Z,6928
2016-09-27T12:23:42.648Z,5952
2016-09-27T12:28:38.138Z,45760
2016-09-27T12:33:34.491Z,6500
2016-09-27T12:38:29.357Z,6492
2016-09-27T12:43:24.662Z,7100
2016-09-27T12:48:20.703Z,6692
2016-09-27T12:53:17.059Z,6984
2016-09-27T12:58:14.459Z,39584
2016-09-27T13:03:12.634Z,6376
2016-09-27T13:08:08.205Z,5604
2016-09-27T13:13:04.133Z,7992
2016-09-27T13:18:01.010Z,4804
2016-09-27T13:22:56.877Z,4516
2016-09-27T13:27:53.636Z,7100
2016-09-27T13:32:50.442Z,5724
2016-09-27T13:37:46.983Z,6288
2016-09-27T13:42:44.319Z,11436
2016-09-27T13:47:41.488Z,6172
2016-09-27T13:52:39.441Z,7120
2016-09-27T13:57:37.179Z,8544
2016-09-27T14:07:40.402Z,4820
2016-09-27T14:12:36.088Z,4072
2016-09-27T14:17:32.061Z,3812
2016-09-27T14:22:28.357Z,3876
2016-09-27T14:27:24.700Z,3456
2016-09-27T14:32:21.216Z,3396
2016-09-27T14:37:17.909Z,3204
2016-09-27T14:42:15.694Z,2984
2016-09-27T14:47:11.977Z,3048
2016-09-27T14:52:09.587Z,3160
2016-09-27T14:57:06.209Z,2720
2016-09-27T15:02:04.342Z,2852
2016-09-27T15:07:00.590Z,2632
2016-09-27T15:11:58.186Z,2568
2016-09-27T15:16:54.409Z,2560
2016-09-27T15:21:51.182Z,2212
2016-09-27T15:26:48.086Z,2216
2016-09-27T15:31:44.662Z,2068
2016-09-27T15:36:42.322Z,1940
2016-09-27T15:41:38.578Z,1872
2016-09-27T15:46:35.187Z,1768
2016-09-27T15:51:31.970Z,1696
2016-09-27T15:56:28.359Z,1636
2016-09-27T16:01:25.204Z,1556
2016-09-27T16:06:21.903Z,1484
2016-09-27T16:11:18.777Z,1388
2016-09-27T16:16:14.927Z,1320
2016-09-27T16:21:11.726Z,1200
2016-09-27T16:26:08.242Z,1152
2016-09-27T16:31:04.930Z,1064
2016-09-27T16:36:01.366Z,972
2016-09-27T16:40:57.866Z,852
2016-09-27T16:45:54.030Z,688
2016-09-27T16:50:50.914Z,512
2016-09-27T16:55:47.368Z,376
2016-09-27T17:00:44.170Z,276
2016-09-27T17:05:40.447Z,200
2016-09-27T17:10:36.889Z,144
2016-09-27T17:15:33.298Z,96
2016-09-27T17:20:30.264Z,60
2016-09-27T17:25:26.971Z,36
2016-09-27T17:30:23.521Z,16
2016-09-27T17:35:20.087Z,8
2016-09-27T17:40:16.650Z,4
2016-09-27T17:45:13.266Z,0
2016-09-27T17:50:09.761Z,0
2016-09-27T17:55:07.464Z,0
2016-09-27T18:00:03.811Z,0
2016-09-27T18:05:00.131Z,0
2016-09-27T18:09:56.612Z,0
2016-09-27T18:14:53.290Z,0
2016-09-27T18:19:50.147Z,0
2016-09-27T18:24:47.565Z,0
2016-09-27T18:29:43.912Z,0
2016-09-27T18:34:40.564Z,0
2016-09-27T18:39:37.603Z,0
2016-09-27T18:44:34.160Z,0
2016-09-27T18:49:30.870Z,0
2016-09-27T18:54:27.659Z,0
2016-09-27T18:59:24.452Z,0
2016-09-27T19:04:22.310Z,0
2016-09-27T19:09:18.350Z,0
2016-09-27T19:14:14.682Z,0
2016-09-27T19:19:11.301Z,0
2016-09-27T19:24:07.815Z,0
2016-09-27T19:29:05.146Z,0
2016-09-27T19:34:01.903Z,0
2016-09-27T19:38:58.454Z,0
2016-09-27T19:43:55.154Z,0
2016-09-27T19:48:51.693Z,0
2016-09-27T19:53:47.679Z,0
2016-09-27T19:58:44.286Z,0
2016-09-27T20:03:40.923Z,0
2016-09-27T20:08:37.586Z,0
2016-09-27T20:13:34.668Z,0
2016-09-27T20:18:31.105Z,0
2016-09-27T20:23:28.276Z,0
2016-09-27T20:28:25.076Z,0
2016-09-27T20:33:21.377Z,0
2016-09-27T20:38:17.811Z,0
2016-09-27T20:43:14.272Z,0
2016-09-27T20:48:11.052Z,0
2016-09-27T20:53:07.955Z,0
2016-09-27T20:58:04.846Z,0
2016-09-27T21:03:02.861Z,0
2016-09-27T21:07:59.141Z,0
2016-09-27T21:12:55.500Z,0
2016-09-27T21:17:51.711Z,0
2016-09-27T21:22:48.841Z,0
2016-09-27T21:27:44.984Z,0
2016-09-27T21:32:41.877Z,0
2016-09-27T21:37:40.413Z,0
2016-09-27T21:42:38.251Z,0
2016-09-27T21:47:34.269Z,0
2016-09-27T21:52:31.134Z,0
2016-09-27T21:57:27.467Z,0
2016-09-27T22:02:24.486Z,0
2016-09-27T22:07:20.841Z,0
2016-09-27T22:12:17.257Z,0
2016-09-27T22:17:14.324Z,0
2016-09-27T22:22:12.047Z,0
2016-09-27T22:27:08.730Z,0
2016-09-27T22:32:05.087Z,0
2016-09-27T22:37:01.640Z,0
2016-09-27T22:41:58.514Z,0
2016-09-27T22:46:54.986Z,0
2016-09-27T22:51:53.036Z,0
2016-09-27T22:56:49.449Z,0
2016-09-27T23:01:46.384Z,0
2016-09-27T23:06:43.238Z,0
2016-09-27T23:11:40.010Z,0
2016-09-27T23:16:36.963Z,0
2016-09-27T23:21:33.715Z,0
2016-09-27T23:26:30.416Z,0
2016-09-27T23:31:26.846Z,0
2016-09-27T23:36:24.088Z,0
2016-09-27T23:41:20.455Z,0
2016-09-27T23:46:18.370Z,0
2016-09-27T23:51:14.383Z,0
2016-09-27T23:56:11.420Z,0
